sensor_id;sensor_type;location;lat;lon;timestamp;P1;durP1;ratioP1;P2;durP2;ratioP2
8594;SDS011;4335;48.860;9.198;2024-01-15T00:01:50;18.37;;;10.70;;
8594;SDS011;4335;48.860;9.198;2024-01-15T00:04:18;19.07;;;9.93;;
8594;SDS011;4335;48.860;9.198;2024-01-15T00:06:45;16.83;;;9.80;;
8594;SDS011;4335;48.860;9.198;2024-01-15T00:09:12;18.90;;;10.93;;
8594;SDS011;4335;48.860;9.198;2024-01-15T00:11:46;16.60;;;9.87;;
8594;SDS011;4335;48.860;9.198;2024-01-15T00:14:13;21.17;;;10.97;;
8594;SDS011;4335;48.860;9.198;2024-01-15T00:16:46;17.67;;;10.27;;
8594;SDS011;4335;48.860;9.198;2024-01-15T00:19:19;17.67;;;10.10;;
8594;SDS011;4335;48.860;9.198;2024-01-15T00:21:46;18.23;;;10.53;;
8594;SDS011;4335;48.860;9.198;2024-01-15T00:24:14;20.90;;;10.07;;
8594;SDS011;4335;48.860;9.198;2024-01-15T00:26:47;21.73;;;10.27;;
8594;SDS011;4335;48.860;9.198;2024-01-15T00:29:15;19.27;;;10.50;;
8594;SDS011;4335;48.860;9.198;2024-01-15T00:31:42;17.20;;;9.73;;
8594;SDS011;4335;48.860;9.198;2024-01-15T00:34:14;19.83;;;10.17;;
8594;SDS011;4335;48.860;9.198;2024-01-15T00:36:41;16.77;;;8.77;;
8594;SDS011;4335;48.860;9.198;2024-01-15T00:39:12;22.00;;;11.03;;
8594;SDS011;4335;48.860;9.198;2024-01-15T00:41:39;20.03;;;9.10;;
8594;SDS011;4335;48.860;9.198;2024-01-15T00:44:06;15.67;;;9.07;;
8594;SDS011;4335;48.860;9.198;2024-01-15T00:46:41;20.27;;;9.80;;
8594;SDS011;4335;48.860;9.198;2024-01-15T00:49:11;15.93;;;9.60;;
8594;SDS011;4335;48.860;9.198;2024-01-15T00:51:39;18.90;;;10.57;;
8594;SDS011;4335;48.860;9.198;2024-01-15T00:54:12;17.70;;;11.03;;
8594;SDS011;4335;48.860;9.198;2024-01-15T00:56:43;18.83;;;9.83;;
8594;SDS011;4335;48.860;9.198;2024-01-15T00:59:10;15.60;;;9.13;;
8594;SDS011;4335;48.860;9.198;2024-01-15T01:01:49;17.17;;;9.33;;
8594;SDS011;4335;48.860;9.198;2024-01-15T01:04:18;17.43;;;9.13;;
8594;SDS011;4335;48.860;9.198;2024-01-15T01:06:47;14.20;;;8.57;;
8594;SDS011;4335;48.860;9.198;2024-01-15T01:09:14;18.00;;;9.47;;
8594;SDS011;4335;48.860;9.198;2024-01-15T01:11:42;17.93;;;9.43;;
8594;SDS011;4335;48.860;9.198;2024-01-15T01:14:15;14.93;;;8.97;;
8594;SDS011;4335;48.860;9.198;2024-01-15T01:16:42;14.77;;;7.97;;
8594;SDS011;4335;48.860;9.198;2024-01-15T01:19:18;16.47;;;9.10;;
8594;SDS011;4335;48.860;9.198;2024-01-15T01:21:45;16.53;;;8.07;;
8594;SDS011;4335;48.860;9.198;2024-01-15T01:24:12;16.27;;;9.47;;
8594;SDS011;4335;48.860;9.198;2024-01-15T01:26:49;15.83;;;9.07;;
8594;SDS011;4335;48.860;9.198;2024-01-15T01:29:16;15.80;;;9.20;;
8594;SDS011;4335;48.860;9.198;2024-01-15T01:31:44;14.90;;;8.93;;
8594;SDS011;4335;48.860;9.198;2024-01-15T01:34:13;15.30;;;7.50;;
8594;SDS011;4335;48.860;9.198;2024-01-15T01:36:45;16.90;;;8.47;;
8594;SDS011;4335;48.860;9.198;2024-01-15T01:39:13;15.10;;;8.47;;
8594;SDS011;4335;48.860;9.198;2024-01-15T01:41:43;14.60;;;7.90;;
8594;SDS011;4335;48.860;9.198;2024-01-15T01:44:13;19.70;;;9.23;;
8594;SDS011;4335;48.860;9.198;2024-01-15T01:46:41;16.83;;;9.30;;
8594;SDS011;4335;48.860;9.198;2024-01-15T01:49:08;17.17;;;8.23;;
8594;SDS011;4335;48.860;9.198;2024-01-15T01:51:38;18.90;;;8.13;;
8594;SDS011;4335;48.860;9.198;2024-01-15T01:54:05;17.50;;;8.73;;
8594;SDS011;4335;48.860;9.198;2024-01-15T01:56:36;14.40;;;7.83;;
8594;SDS011;4335;48.860;9.198;2024-01-15T01:59:07;17.10;;;9.83;;
8594;SDS011;4335;48.860;9.198;2024-01-15T02:01:42;14.40;;;9.00;;
8594;SDS011;4335;48.860;9.198;2024-01-15T02:04:15;16.67;;;8.90;;
8594;SDS011;4335;48.860;9.198;2024-01-15T02:06:45;12.17;;;7.23;;
8594;SDS011;4335;48.860;9.198;2024-01-15T02:09:12;16.63;;;8.33;;
8594;SDS011;4335;48.860;9.198;2024-01-15T02:11:41;16.40;;;8.43;;
8594;SDS011;4335;48.860;9.198;2024-01-15T02:14:09;16.00;;;8.83;;
8594;SDS011;4335;48.860;9.198;2024-01-15T02:16:45;16.23;;;8.10;;
8594;SDS011;4335;48.860;9.198;2024-01-15T02:19:14;19.13;;;8.80;;
8594;SDS011;4335;48.860;9.198;2024-01-15T02:21:42;12.20;;;8.13;;
8594;SDS011;4335;48.860;9.198;2024-01-15T02:24:13;12.47;;;7.80;;
8594;SDS011;4335;48.860;9.198;2024-01-15T02:26:40;14.13;;;7.67;;
8594;SDS011;4335;48.860;9.198;2024-01-15T02:29:08;15.57;;;8.80;;
8594;SDS011;4335;48.860;9.198;2024-01-15T02:31:36;15.83;;;8.37;;
8594;SDS011;4335;48.860;9.198;2024-01-15T02:34:04;13.97;;;8.67;;
8594;SDS011;4335;48.860;9.198;2024-01-15T02:36:31;11.10;;;7.07;;
8594;SDS011;4335;48.860;9.198;2024-01-15T02:39:08;14.47;;;7.20;;
8594;SDS011;4335;48.860;9.198;2024-01-15T02:41:40;15.33;;;9.20;;
8594;SDS011;4335;48.860;9.198;2024-01-15T02:44:10;15.40;;;7.77;;
8594;SDS011;4335;48.860;9.198;2024-01-15T02:46:37;12.97;;;8.00;;
8594;SDS011;4335;48.860;9.198;2024-01-15T02:49:07;12.00;;;7.10;;
8594;SDS011;4335;48.860;9.198;2024-01-15T02:51:38;13.37;;;7.10;;
8594;SDS011;4335;48.860;9.198;2024-01-15T02:54:05;11.07;;;7.70;;
8594;SDS011;4335;48.860;9.198;2024-01-15T02:56:33;12.60;;;8.20;;
8594;SDS011;4335;48.860;9.198;2024-01-15T02:59:04;14.40;;;7.43;;
8594;SDS011;4335;48.860;9.198;2024-01-15T03:01:32;14.60;;;7.30;;
8594;SDS011;4335;48.860;9.198;2024-01-15T03:03:59;14.67;;;6.97;;
8594;SDS011;4335;48.860;9.198;2024-01-15T03:06:30;11.13;;;6.77;;
8594;SDS011;4335;48.860;9.198;2024-01-15T03:09:00;14.23;;;7.13;;
8594;SDS011;4335;48.860;9.198;2024-01-15T03:11:36;14.43;;;8.33;;
8594;SDS011;4335;48.860;9.198;2024-01-15T03:14:05;10.13;;;7.07;;
8594;SDS011;4335;48.860;9.198;2024-01-15T03:16:36;12.50;;;6.33;;
8594;SDS011;4335;48.860;9.198;2024-01-15T03:19:03;12.03;;;7.80;;
8594;SDS011;4335;48.860;9.198;2024-01-15T03:21:31;12.90;;;6.97;;
8594;SDS011;4335;48.860;9.198;2024-01-15T03:23:58;13.47;;;7.20;;
8594;SDS011;4335;48.860;9.198;2024-01-15T03:26:28;14.43;;;8.33;;
8594;SDS011;4335;48.860;9.198;2024-01-15T03:28:55;14.67;;;7.37;;
8594;SDS011;4335;48.860;9.198;2024-01-15T03:31:31;12.63;;;6.50;;
8594;SDS011;4335;48.860;9.198;2024-01-15T03:33:59;15.97;;;7.80;;
8594;SDS011;4335;48.860;9.198;2024-01-15T03:36:26;13.30;;;7.80;;
8594;SDS011;4335;48.860;9.198;2024-01-15T03:39:00;11.90;;;8.17;;
8594;SDS011;4335;48.860;9.198;2024-01-15T03:41:30;12.13;;;7.77;;
8594;SDS011;4335;48.860;9.198;2024-01-15T03:44:01;12.70;;;7.00;;
8594;SDS011;4335;48.860;9.198;2024-01-15T03:46:32;11.53;;;6.97;;
8594;SDS011;4335;48.860;9.198;2024-01-15T03:49:00;12.57;;;7.30;;
8594;SDS011;4335;48.860;9.198;2024-01-15T03:51:30;12.97;;;7.87;;
8594;SDS011;4335;48.860;9.198;2024-01-15T03:54:03;15.63;;;8.13;;
8594;SDS011;4335;48.860;9.198;2024-01-15T03:56:31;11.80;;;7.97;;
8594;SDS011;4335;48.860;9.198;2024-01-15T03:58:58;12.17;;;7.93;;
8594;SDS011;4335;48.860;9.198;2024-01-15T04:01:29;11.77;;;7.00;;
8594;SDS011;4335;48.860;9.198;2024-01-15T04:04:00;11.20;;;6.83;;
8594;SDS011;4335;48.860;9.198;2024-01-15T04:06:27;12.07;;;7.20;;
8594;SDS011;4335;48.860;9.198;2024-01-15T04:08:55;12.13;;;6.77;;
8594;SDS011;4335;48.860;9.198;2024-01-15T04:11:24;11.43;;;6.73;;
8594;SDS011;4335;48.860;9.198;2024-01-15T04:13:51;12.30;;;7.37;;
8594;SDS011;4335;48.860;9.198;2024-01-15T04:16:22;12.67;;;7.67;;
8594;SDS011;4335;48.860;9.198;2024-01-15T04:18:49;11.43;;;7.33;;
8594;SDS011;4335;48.860;9.198;2024-01-15T04:21:18;11.70;;;6.83;;
8594;SDS011;4335;48.860;9.198;2024-01-15T04:23:51;9.93;;;6.10;;
8594;SDS011;4335;48.860;9.198;2024-01-15T04:26:19;13.03;;;6.67;;
8594;SDS011;4335;48.860;9.198;2024-01-15T04:28:49;12.27;;;6.93;;
8594;SDS011;4335;48.860;9.198;2024-01-15T04:31:23;10.93;;;6.67;;
8594;SDS011;4335;48.860;9.198;2024-01-15T04:33:55;9.07;;;6.20;;
8594;SDS011;4335;48.860;9.198;2024-01-15T04:36:32;11.03;;;6.13;;
8594;SDS011;4335;48.860;9.198;2024-01-15T04:39:04;12.03;;;6.23;;
8594;SDS011;4335;48.860;9.198;2024-01-15T04:41:38;8.67;;;5.90;;
8594;SDS011;4335;48.860;9.198;2024-01-15T04:44:06;10.47;;;5.77;;
8594;SDS011;4335;48.860;9.198;2024-01-15T04:46:34;10.17;;;5.60;;
8594;SDS011;4335;48.860;9.198;2024-01-15T04:49:02;9.30;;;5.67;;
8594;SDS011;4335;48.860;9.198;2024-01-15T04:51:29;12.07;;;6.50;;
8594;SDS011;4335;48.860;9.198;2024-01-15T04:53:57;10.40;;;6.17;;
8594;SDS011;4335;48.860;9.198;2024-01-15T04:56:27;10.17;;;5.80;;
8594;SDS011;4335;48.860;9.198;2024-01-15T04:58:55;8.70;;;5.23;;
8594;SDS011;4335;48.860;9.198;2024-01-15T05:01:22;12.20;;;5.87;;
8594;SDS011;4335;48.860;9.198;2024-01-15T05:03:50;11.33;;;5.93;;
8594;SDS011;4335;48.860;9.198;2024-01-15T05:06:26;10.37;;;5.50;;
8594;SDS011;4335;48.860;9.198;2024-01-15T05:08:55;10.20;;;6.47;;
8594;SDS011;4335;48.860;9.198;2024-01-15T05:11:22;11.23;;;6.47;;
8594;SDS011;4335;48.860;9.198;2024-01-15T05:13:50;9.33;;;6.03;;
8594;SDS011;4335;48.860;9.198;2024-01-15T05:16:17;10.20;;;6.43;;
8594;SDS011;4335;48.860;9.198;2024-01-15T05:18:48;8.50;;;5.90;;
8594;SDS011;4335;48.860;9.198;2024-01-15T05:21:15;9.17;;;5.70;;
8594;SDS011;4335;48.860;9.198;2024-01-15T05:23:46;12.17;;;6.90;;
8594;SDS011;4335;48.860;9.198;2024-01-15T05:26:17;9.33;;;6.30;;
8594;SDS011;4335;48.860;9.198;2024-01-15T05:28:45;7.70;;;5.40;;
8594;SDS011;4335;48.860;9.198;2024-01-15T05:31:12;12.50;;;6.50;;
8594;SDS011;4335;48.860;9.198;2024-01-15T05:33:40;11.90;;;6.53;;
8594;SDS011;4335;48.860;9.198;2024-01-15T05:36:13;9.90;;;6.37;;
8594;SDS011;4335;48.860;9.198;2024-01-15T05:38:41;8.70;;;5.80;;
8594;SDS011;4335;48.860;9.198;2024-01-15T05:41:08;9.80;;;6.57;;
8594;SDS011;4335;48.860;9.198;2024-01-15T05:43:39;9.70;;;5.60;;
8594;SDS011;4335;48.860;9.198;2024-01-15T05:46:07;8.17;;;5.63;;
8594;SDS011;4335;48.860;9.198;2024-01-15T05:48:37;8.27;;;5.30;;
8594;SDS011;4335;48.860;9.198;2024-01-15T05:51:05;9.07;;;5.17;;
8594;SDS011;4335;48.860;9.198;2024-01-15T05:53:39;7.17;;;5.33;;
8594;SDS011;4335;48.860;9.198;2024-01-15T05:56:14;8.57;;;6.53;;
8594;SDS011;4335;48.860;9.198;2024-01-15T05:58:43;9.13;;;6.13;;
8594;SDS011;4335;48.860;9.198;2024-01-15T06:01:13;7.07;;;5.73;;
8594;SDS011;4335;48.860;9.198;2024-01-15T06:03:41;8.87;;;6.00;;
8594;SDS011;4335;48.860;9.198;2024-01-15T06:06:16;7.77;;;5.23;;
8594;SDS011;4335;48.860;9.198;2024-01-15T06:08:46;8.90;;;5.53;;
8594;SDS011;4335;48.860;9.198;2024-01-15T06:11:14;7.73;;;5.17;;
8594;SDS011;4335;48.860;9.198;2024-01-15T06:13:46;10.17;;;5.30;;
8594;SDS011;4335;48.860;9.198;2024-01-15T06:16:14;8.57;;;5.63;;
8594;SDS011;4335;48.860;9.198;2024-01-15T06:18:42;9.27;;;5.30;;
8594;SDS011;4335;48.860;9.198;2024-01-15T06:21:12;8.50;;;5.70;;
8594;SDS011;4335;48.860;9.198;2024-01-15T06:23:40;12.70;;;6.70;;
8594;SDS011;4335;48.860;9.198;2024-01-15T06:26:07;12.73;;;6.67;;
8594;SDS011;4335;48.860;9.198;2024-01-15T06:28:34;10.87;;;6.40;;
8594;SDS011;4335;48.860;9.198;2024-01-15T06:31:06;11.03;;;5.63;;
8594;SDS011;4335;48.860;9.198;2024-01-15T06:33:33;9.77;;;6.37;;
8594;SDS011;4335;48.860;9.198;2024-01-15T06:36:04;10.93;;;6.60;;
8594;SDS011;4335;48.860;9.198;2024-01-15T06:38:35;13.33;;;7.10;;
8594;SDS011;4335;48.860;9.198;2024-01-15T06:41:04;8.03;;;5.90;;
8594;SDS011;4335;48.860;9.198;2024-01-15T06:43:34;8.57;;;5.67;;
8594;SDS011;4335;48.860;9.198;2024-01-15T06:46:09;10.00;;;5.97;;
8594;SDS011;4335;48.860;9.198;2024-01-15T06:48:36;7.83;;;5.17;;
8594;SDS011;4335;48.860;9.198;2024-01-15T06:51:04;6.93;;;5.17;;
8594;SDS011;4335;48.860;9.198;2024-01-15T06:53:34;7.83;;;6.23;;
8594;SDS011;4335;48.860;9.198;2024-01-15T06:56:05;7.70;;;4.63;;
8594;SDS011;4335;48.860;9.198;2024-01-15T06:58:35;9.97;;;5.20;;
8594;SDS011;4335;48.860;9.198;2024-01-15T07:01:05;8.20;;;5.70;;
8594;SDS011;4335;48.860;9.198;2024-01-15T07:03:37;10.13;;;5.63;;
8594;SDS011;4335;48.860;9.198;2024-01-15T07:06:05;9.33;;;5.73;;
8594;SDS011;4335;48.860;9.198;2024-01-15T07:08:32;11.07;;;5.90;;
8594;SDS011;4335;48.860;9.198;2024-01-15T07:11:03;8.10;;;5.83;;
8594;SDS011;4335;48.860;9.198;2024-01-15T07:13:31;7.27;;;5.10;;
8594;SDS011;4335;48.860;9.198;2024-01-15T07:16:02;8.10;;;5.80;;
8594;SDS011;4335;48.860;9.198;2024-01-15T07:18:30;10.20;;;6.30;;
8594;SDS011;4335;48.860;9.198;2024-01-15T07:20:59;11.33;;;6.67;;
8594;SDS011;4335;48.860;9.198;2024-01-15T07:23:30;9.80;;;6.03;;
8594;SDS011;4335;48.860;9.198;2024-01-15T07:26:01;8.67;;;5.90;;
8594;SDS011;4335;48.860;9.198;2024-01-15T07:28:32;10.73;;;6.60;;
8594;SDS011;4335;48.860;9.198;2024-01-15T07:31:02;10.83;;;5.67;;
8594;SDS011;4335;48.860;9.198;2024-01-15T07:33:31;9.00;;;5.70;;
8594;SDS011;4335;48.860;9.198;2024-01-15T07:36:03;10.47;;;5.63;;
8594;SDS011;4335;48.860;9.198;2024-01-15T07:38:31;8.07;;;6.13;;
8594;SDS011;4335;48.860;9.198;2024-01-15T07:40:59;8.30;;;6.63;;
8594;SDS011;4335;48.860;9.198;2024-01-15T07:43:26;11.80;;;6.50;;
8594;SDS011;4335;48.860;9.198;2024-01-15T07:46:00;9.63;;;6.97;;
8594;SDS011;4335;48.860;9.198;2024-01-15T07:48:27;11.90;;;7.23;;
8594;SDS011;4335;48.860;9.198;2024-01-15T07:50:55;9.40;;;6.60;;
8594;SDS011;4335;48.860;9.198;2024-01-15T07:53:26;8.47;;;6.63;;
8594;SDS011;4335;48.860;9.198;2024-01-15T07:55:54;10.67;;;7.00;;
8594;SDS011;4335;48.860;9.198;2024-01-15T07:58:22;8.43;;;5.63;;
8594;SDS011;4335;48.860;9.198;2024-01-15T08:00:52;16.33;;;6.57;;
8594;SDS011;4335;48.860;9.198;2024-01-15T08:03:19;11.30;;;5.93;;
8594;SDS011;4335;48.860;9.198;2024-01-15T08:05:50;9.40;;;6.17;;
8594;SDS011;4335;48.860;9.198;2024-01-15T08:08:22;12.43;;;6.83;;
8594;SDS011;4335;48.860;9.198;2024-01-15T08:10:57;11.67;;;7.30;;
8594;SDS011;4335;48.860;9.198;2024-01-15T08:13:26;11.60;;;7.57;;
8594;SDS011;4335;48.860;9.198;2024-01-15T08:15:56;10.20;;;7.27;;
8594;SDS011;4335;48.860;9.198;2024-01-15T08:18:27;10.07;;;6.90;;
8594;SDS011;4335;48.860;9.198;2024-01-15T08:20:57;9.77;;;6.03;;
8594;SDS011;4335;48.860;9.198;2024-01-15T08:23:24;13.93;;;7.27;;
8594;SDS011;4335;48.860;9.198;2024-01-15T08:25:53;10.03;;;6.47;;
8594;SDS011;4335;48.860;9.198;2024-01-15T08:28:22;14.07;;;7.90;;
8594;SDS011;4335;48.860;9.198;2024-01-15T08:30:49;15.47;;;7.80;;
8594;SDS011;4335;48.860;9.198;2024-01-15T08:33:16;10.87;;;7.43;;
8594;SDS011;4335;48.860;9.198;2024-01-15T08:35:47;10.63;;;7.27;;
8594;SDS011;4335;48.860;9.198;2024-01-15T08:38:15;8.80;;;6.23;;
8594;SDS011;4335;48.860;9.198;2024-01-15T08:40:45;9.77;;;5.50;;
8594;SDS011;4335;48.860;9.198;2024-01-15T08:43:13;10.33;;;5.03;;
8594;SDS011;4335;48.860;9.198;2024-01-15T08:45:42;8.93;;;5.80;;
8594;SDS011;4335;48.860;9.198;2024-01-15T08:48:12;7.10;;;5.07;;
8594;SDS011;4335;48.860;9.198;2024-01-15T08:50:39;8.00;;;5.00;;
8594;SDS011;4335;48.860;9.198;2024-01-15T08:53:19;7.63;;;4.70;;
8594;SDS011;4335;48.860;9.198;2024-01-15T08:55:46;7.63;;;4.83;;
8594;SDS011;4335;48.860;9.198;2024-01-15T08:58:16;7.57;;;5.23;;
8594;SDS011;4335;48.860;9.198;2024-01-15T09:00:45;10.23;;;5.37;;
8594;SDS011;4335;48.860;9.198;2024-01-15T09:03:16;7.43;;;4.77;;
8594;SDS011;4335;48.860;9.198;2024-01-15T09:05:43;10.10;;;5.13;;
8594;SDS011;4335;48.860;9.198;2024-01-15T09:08:13;8.10;;;5.00;;
8594;SDS011;4335;48.860;9.198;2024-01-15T09:10:41;8.47;;;5.37;;
8594;SDS011;4335;48.860;9.198;2024-01-15T09:13:11;7.67;;;5.20;;
8594;SDS011;4335;48.860;9.198;2024-01-15T09:15:39;10.40;;;5.30;;
8594;SDS011;4335;48.860;9.198;2024-01-15T09:18:08;6.00;;;4.40;;
8594;SDS011;4335;48.860;9.198;2024-01-15T09:20:35;7.27;;;4.77;;
8594;SDS011;4335;48.860;9.198;2024-01-15T09:23:03;6.97;;;4.40;;
8594;SDS011;4335;48.860;9.198;2024-01-15T09:25:31;6.57;;;4.83;;
8594;SDS011;4335;48.860;9.198;2024-01-15T09:27:58;6.30;;;4.67;;
8594;SDS011;4335;48.860;9.198;2024-01-15T09:30:26;6.83;;;4.37;;
8594;SDS011;4335;48.860;9.198;2024-01-15T09:32:53;8.20;;;5.00;;
8594;SDS011;4335;48.860;9.198;2024-01-15T09:35:24;8.77;;;5.77;;
8594;SDS011;4335;48.860;9.198;2024-01-15T09:37:52;6.13;;;4.53;;
8594;SDS011;4335;48.860;9.198;2024-01-15T09:40:20;7.73;;;4.93;;
8594;SDS011;4335;48.860;9.198;2024-01-15T09:42:47;7.00;;;4.33;;
8594;SDS011;4335;48.860;9.198;2024-01-15T09:45:17;5.33;;;4.80;;
8594;SDS011;4335;48.860;9.198;2024-01-15T09:47:45;7.80;;;4.70;;
8594;SDS011;4335;48.860;9.198;2024-01-15T09:50:15;6.23;;;4.80;;
8594;SDS011;4335;48.860;9.198;2024-01-15T09:52:44;5.20;;;4.50;;
8594;SDS011;4335;48.860;9.198;2024-01-15T09:55:15;7.13;;;5.20;;
8594;SDS011;4335;48.860;9.198;2024-01-15T09:57:46;6.73;;;4.33;;
8594;SDS011;4335;48.860;9.198;2024-01-15T10:00:14;5.80;;;4.13;;
8594;SDS011;4335;48.860;9.198;2024-01-15T10:02:44;7.10;;;5.07;;
8594;SDS011;4335;48.860;9.198;2024-01-15T10:05:17;7.77;;;4.43;;
8594;SDS011;4335;48.860;9.198;2024-01-15T10:07:48;5.50;;;4.00;;
8594;SDS011;4335;48.860;9.198;2024-01-15T10:10:18;4.67;;;4.17;;
8594;SDS011;4335;48.860;9.198;2024-01-15T10:12:46;5.97;;;4.20;;
8594;SDS011;4335;48.860;9.198;2024-01-15T10:15:21;10.33;;;4.80;;
8594;SDS011;4335;48.860;9.198;2024-01-15T10:17:51;5.70;;;4.33;;
8594;SDS011;4335;48.860;9.198;2024-01-15T10:20:22;5.83;;;4.60;;
8594;SDS011;4335;48.860;9.198;2024-01-15T10:22:50;7.07;;;4.50;;
8594;SDS011;4335;48.860;9.198;2024-01-15T10:25:18;5.27;;;4.27;;
8594;SDS011;4335;48.860;9.198;2024-01-15T10:27:58;8.73;;;5.23;;
8594;SDS011;4335;48.860;9.198;2024-01-15T10:30:26;7.07;;;4.77;;
8594;SDS011;4335;48.860;9.198;2024-01-15T10:32:57;6.90;;;4.33;;
8594;SDS011;4335;48.860;9.198;2024-01-15T10:35:29;5.27;;;3.87;;
8594;SDS011;4335;48.860;9.198;2024-01-15T10:37:58;4.90;;;4.20;;
8594;SDS011;4335;48.860;9.198;2024-01-15T10:40:26;5.63;;;4.00;;
8594;SDS011;4335;48.860;9.198;2024-01-15T10:42:54;8.07;;;5.67;;
8594;SDS011;4335;48.860;9.198;2024-01-15T10:45:22;7.67;;;4.20;;
8594;SDS011;4335;48.860;9.198;2024-01-15T10:47:50;8.10;;;4.33;;
8594;SDS011;4335;48.860;9.198;2024-01-15T10:50:17;7.03;;;4.77;;
8594;SDS011;4335;48.860;9.198;2024-01-15T10:52:45;6.17;;;5.33;;
8594;SDS011;4335;48.860;9.198;2024-01-15T10:55:14;11.03;;;6.47;;
8594;SDS011;4335;48.860;9.198;2024-01-15T10:57:42;8.70;;;5.40;;
8594;SDS011;4335;48.860;9.198;2024-01-15T11:00:13;8.27;;;5.80;;
8594;SDS011;4335;48.860;9.198;2024-01-15T11:02:41;8.43;;;4.47;;
8594;SDS011;4335;48.860;9.198;2024-01-15T11:05:10;8.20;;;5.80;;
8594;SDS011;4335;48.860;9.198;2024-01-15T11:07:42;7.20;;;5.10;;
8594;SDS011;4335;48.860;9.198;2024-01-15T11:13:08;4.83;;;3.50;;
8594;SDS011;4335;48.860;9.198;2024-01-15T11:18:26;6.07;;;4.10;;
8594;SDS011;4335;48.860;9.198;2024-01-15T11:23:51;7.10;;;4.50;;
8594;SDS011;4335;48.860;9.198;2024-01-15T11:26:33;10.67;;;7.43;;
8594;SDS011;4335;48.860;9.198;2024-01-15T11:29:05;5.80;;;4.70;;
8594;SDS011;4335;48.860;9.198;2024-01-15T11:37:18;6.20;;;5.17;;
8594;SDS011;4335;48.860;9.198;2024-01-15T11:39:52;8.70;;;6.33;;
8594;SDS011;4335;48.860;9.198;2024-01-15T11:42:22;9.53;;;6.97;;
8594;SDS011;4335;48.860;9.198;2024-01-15T11:44:49;9.90;;;6.00;;
8594;SDS011;4335;48.860;9.198;2024-01-15T11:47:22;7.73;;;5.53;;
8594;SDS011;4335;48.860;9.198;2024-01-15T11:50:29;8.27;;;5.93;;
8594;SDS011;4335;48.860;9.198;2024-01-15T11:52:59;7.13;;;5.30;;
8594;SDS011;4335;48.860;9.198;2024-01-15T11:55:28;8.57;;;6.57;;
8594;SDS011;4335;48.860;9.198;2024-01-15T11:58:02;7.67;;;5.10;;
8594;SDS011;4335;48.860;9.198;2024-01-15T12:00:31;9.67;;;5.30;;
8594;SDS011;4335;48.860;9.198;2024-01-15T12:03:01;8.40;;;6.07;;
8594;SDS011;4335;48.860;9.198;2024-01-15T12:05:31;10.07;;;7.00;;
8594;SDS011;4335;48.860;9.198;2024-01-15T12:08:03;9.97;;;5.83;;
8594;SDS011;4335;48.860;9.198;2024-01-15T12:10:38;8.00;;;5.83;;
8594;SDS011;4335;48.860;9.198;2024-01-15T12:13:09;7.60;;;5.50;;
8594;SDS011;4335;48.860;9.198;2024-01-15T12:15:38;6.93;;;5.13;;
8594;SDS011;4335;48.860;9.198;2024-01-15T12:18:07;8.00;;;5.53;;
8594;SDS011;4335;48.860;9.198;2024-01-15T12:20:37;11.23;;;6.50;;
8594;SDS011;4335;48.860;9.198;2024-01-15T12:23:06;10.10;;;6.27;;
8594;SDS011;4335;48.860;9.198;2024-01-15T12:25:39;8.83;;;6.23;;
8594;SDS011;4335;48.860;9.198;2024-01-15T12:28:15;8.90;;;6.40;;
8594;SDS011;4335;48.860;9.198;2024-01-15T12:30:48;7.53;;;5.43;;
8594;SDS011;4335;48.860;9.198;2024-01-15T12:33:17;10.60;;;5.80;;
8594;SDS011;4335;48.860;9.198;2024-01-15T12:35:48;12.93;;;6.10;;
8594;SDS011;4335;48.860;9.198;2024-01-15T12:38:19;9.67;;;6.93;;
8594;SDS011;4335;48.860;9.198;2024-01-15T12:40:46;8.63;;;6.33;;
8594;SDS011;4335;48.860;9.198;2024-01-15T12:43:19;10.47;;;5.30;;
8594;SDS011;4335;48.860;9.198;2024-01-15T12:45:46;13.17;;;7.20;;
8594;SDS011;4335;48.860;9.198;2024-01-15T12:48:14;8.13;;;5.83;;
8594;SDS011;4335;48.860;9.198;2024-01-15T12:50:42;7.57;;;4.87;;
8594;SDS011;4335;48.860;9.198;2024-01-15T12:53:10;9.10;;;5.57;;
8594;SDS011;4335;48.860;9.198;2024-01-15T12:55:38;9.27;;;5.30;;
8594;SDS011;4335;48.860;9.198;2024-01-15T12:58:08;9.23;;;5.40;;
8594;SDS011;4335;48.860;9.198;2024-01-15T13:00:37;5.43;;;4.50;;
8594;SDS011;4335;48.860;9.198;2024-01-15T13:03:07;7.67;;;4.53;;
8594;SDS011;4335;48.860;9.198;2024-01-15T13:05:35;10.77;;;4.50;;
8594;SDS011;4335;48.860;9.198;2024-01-15T13:08:03;7.73;;;4.23;;
8594;SDS011;4335;48.860;9.198;2024-01-15T13:10:31;7.93;;;4.40;;
8594;SDS011;4335;48.860;9.198;2024-01-15T13:13:04;6.97;;;5.00;;
8594;SDS011;4335;48.860;9.198;2024-01-15T13:15:32;6.97;;;4.67;;
8594;SDS011;4335;48.860;9.198;2024-01-15T13:18:01;7.53;;;4.57;;
8594;SDS011;4335;48.860;9.198;2024-01-15T13:20:28;8.13;;;4.27;;
8594;SDS011;4335;48.860;9.198;2024-01-15T13:22:55;9.70;;;5.00;;
8594;SDS011;4335;48.860;9.198;2024-01-15T13:25:23;6.67;;;5.27;;
8594;SDS011;4335;48.860;9.198;2024-01-15T13:27:53;5.17;;;3.70;;
8594;SDS011;4335;48.860;9.198;2024-01-15T13:30:20;7.33;;;3.87;;
8594;SDS011;4335;48.860;9.198;2024-01-15T13:32:48;5.93;;;4.10;;
8594;SDS011;4335;48.860;9.198;2024-01-15T13:35:23;7.40;;;4.07;;
8594;SDS011;4335;48.860;9.198;2024-01-15T13:37:51;4.83;;;3.70;;
8594;SDS011;4335;48.860;9.198;2024-01-15T13:40:27;4.97;;;4.13;;
8594;SDS011;4335;48.860;9.198;2024-01-15T13:42:58;5.13;;;4.00;;
8594;SDS011;4335;48.860;9.198;2024-01-15T13:45:31;6.60;;;4.30;;
8594;SDS011;4335;48.860;9.198;2024-01-15T13:48:02;4.63;;;3.90;;
8594;SDS011;4335;48.860;9.198;2024-01-15T13:50:35;5.07;;;4.20;;
8594;SDS011;4335;48.860;9.198;2024-01-15T13:53:03;4.87;;;3.80;;
8594;SDS011;4335;48.860;9.198;2024-01-15T13:55:31;7.30;;;5.03;;
8594;SDS011;4335;48.860;9.198;2024-01-15T13:57:59;7.80;;;4.50;;
8594;SDS011;4335;48.860;9.198;2024-01-15T14:00:31;5.60;;;4.23;;
8594;SDS011;4335;48.860;9.198;2024-01-15T14:02:59;5.37;;;3.97;;
8594;SDS011;4335;48.860;9.198;2024-01-15T14:05:27;4.27;;;3.60;;
8594;SDS011;4335;48.860;9.198;2024-01-15T14:07:55;5.27;;;3.93;;
8594;SDS011;4335;48.860;9.198;2024-01-15T14:10:24;5.83;;;3.93;;
8594;SDS011;4335;48.860;9.198;2024-01-15T14:12:51;5.90;;;4.60;;
8594;SDS011;4335;48.860;9.198;2024-01-15T14:15:18;6.50;;;4.90;;
8594;SDS011;4335;48.860;9.198;2024-01-15T14:17:47;6.50;;;4.90;;
8594;SDS011;4335;48.860;9.198;2024-01-15T14:20:14;6.87;;;4.80;;
8594;SDS011;4335;48.860;9.198;2024-01-15T14:22:48;9.13;;;4.70;;
8594;SDS011;4335;48.860;9.198;2024-01-15T14:25:17;6.00;;;4.93;;
8594;SDS011;4335;48.860;9.198;2024-01-15T14:27:44;6.87;;;4.47;;
8594;SDS011;4335;48.860;9.198;2024-01-15T14:30:12;8.20;;;5.33;;
8594;SDS011;4335;48.860;9.198;2024-01-15T14:32:44;7.97;;;6.30;;
8594;SDS011;4335;48.860;9.198;2024-01-15T14:35:11;5.33;;;4.50;;
8594;SDS011;4335;48.860;9.198;2024-01-15T14:37:38;7.50;;;5.53;;
8594;SDS011;4335;48.860;9.198;2024-01-15T14:40:06;8.77;;;5.43;;
8594;SDS011;4335;48.860;9.198;2024-01-15T14:42:38;6.03;;;5.20;;
8594;SDS011;4335;48.860;9.198;2024-01-15T14:45:09;6.47;;;5.40;;
8594;SDS011;4335;48.860;9.198;2024-01-15T14:47:38;6.83;;;5.93;;
8594;SDS011;4335;48.860;9.198;2024-01-15T14:50:08;8.43;;;5.93;;
8594;SDS011;4335;48.860;9.198;2024-01-15T14:52:39;8.50;;;6.53;;
8594;SDS011;4335;48.860;9.198;2024-01-15T14:55:07;6.17;;;5.57;;
8594;SDS011;4335;48.860;9.198;2024-01-15T14:57:35;6.60;;;5.90;;
8594;SDS011;4335;48.860;9.198;2024-01-15T15:00:17;7.07;;;5.90;;
8594;SDS011;4335;48.860;9.198;2024-01-15T15:02:44;8.37;;;5.87;;
8594;SDS011;4335;48.860;9.198;2024-01-15T15:05:18;7.80;;;5.23;;
8594;SDS011;4335;48.860;9.198;2024-01-15T15:07:45;9.00;;;6.30;;
8594;SDS011;4335;48.860;9.198;2024-01-15T15:10:13;7.17;;;5.47;;
8594;SDS011;4335;48.860;9.198;2024-01-15T15:12:40;9.73;;;6.07;;
8594;SDS011;4335;48.860;9.198;2024-01-15T15:15:07;8.20;;;5.90;;
8594;SDS011;4335;48.860;9.198;2024-01-15T15:17:37;11.00;;;7.00;;
8594;SDS011;4335;48.860;9.198;2024-01-15T15:20:05;9.10;;;6.80;;
8594;SDS011;4335;48.860;9.198;2024-01-15T15:22:34;8.67;;;6.23;;
8594;SDS011;4335;48.860;9.198;2024-01-15T15:25:01;7.03;;;5.43;;
8594;SDS011;4335;48.860;9.198;2024-01-15T15:27:28;7.60;;;5.77;;
8594;SDS011;4335;48.860;9.198;2024-01-15T15:29:59;8.70;;;5.63;;
8594;SDS011;4335;48.860;9.198;2024-01-15T15:32:26;10.77;;;6.87;;
8594;SDS011;4335;48.860;9.198;2024-01-15T15:34:55;8.70;;;6.13;;
8594;SDS011;4335;48.860;9.198;2024-01-15T15:37:25;7.80;;;5.83;;